Voltaire, ND (58792)

6:25 AM CDT on August 20, 2014 (GMT -0500)
Olson Farm | Change Station
CLOSE
Current Station
Personal Weather Station
Location: Max, ND
Elevation: 2008 ft
Nearby Weather Stations

Elev 2008 ft 47.77 °N, 101.17 °W | Updated 10 minutes ago

Clear
Clear
61.5 °F
Feels Like 61.5 °F
N
1.6
Wind Variable Wind from East
Gusts 3.8 mph

Today
High -- | Low -- °F
--% Chance of Precip.
Yesterday
High -- | Low -- °F
Precip. -- in
6:44 AM 8:47 PM
Waning Crescent, 22% visible
Pressure 29.64 in
Visibility 9.0 miles
Clouds Clear
Dew Point 60 °F
Humidity 94%
Rainfall 0.00 in
Snow Depth Not available.
UV 0 out of 12
Pollen 9.10 out of 12
Air Quality Not available.
Flu Activity Not available.
METAR KMOT 201054Z AUTO 00000KT 9SM CLR 17/16 A2966 RMK AO2 SLP035 T01720156

More Conditions Fewer Conditions

Pressure 29.64 in
Visibility 9.0 miles
Clouds Clear
Dew Point 60 °F
Humidity 94%
Rainfall 0.00 in
Snow Depth Not available.
UV 0 out of 12
Pollen 9.10 out of 12
Air Quality Not available.
Flu Activity Not available.
METAR KMOT 201054Z AUTO 00000KT 9SM CLR 17/16 A2966 RMK AO2 SLP035 T01720156

More Conditions Fewer Conditions

10-Day Weather Forecast

Almanac

Astronomy

Aug. 20, 2014 Rise Set
Actual Time 6:44 AM CDT 8:47 PM CDT
Civil Twilight 6:11 AM CDT 9:20 PM CDT
Nautical Twilight 5:29 AM CDT 10:01 PM CDT
Astronomical Twilight 4:43 AM CDT 10:47 PM CDT
Moon 2:18 AM CDT 5:41 PM CDT
Length of Visible Light 15h 08m
Length of Day
14h 02m
Tomorrow will be 3m 12s shorter.
Waning Crescent, 22% of the Moon is Illuminated
Today
Waning Crescent
Aug 25
New
Sep 2
First Quarter
Sep 8
Full
Sep 15
Last Quarter

Today's Extremes

State Highs State Lows

Community

WunderPhotos

Upload Photos

1,745,611 photos uploaded!

Nearby

Snow Depth

Station Depth Elevation
No new snow has been reported.

Earthquake Activity

City Distance Mag. Time & Date
No recent earthquake activity has been reported nearby.
Minimum magnitude displayed is 2.5.

Coastal Water Temperatures

Place Temperature
No Stations Reporting

Nearby Weather Stations